createdAt,value
2019-05-09T00:01:03.730Z,25.30
2019-05-09T00:03:44.106Z,25.40
2019-05-09T00:06:23.851Z,25.50
2019-05-09T00:09:03.572Z,25.50
2019-05-09T00:11:43.839Z,25.60
2019-05-09T00:14:23.853Z,25.60
2019-05-09T00:17:03.512Z,25.70
2019-05-09T00:19:43.717Z,25.80
2019-05-09T00:22:25.134Z,25.80
2019-05-09T00:25:03.365Z,26.00
2019-05-09T00:27:43.484Z,25.80
2019-05-09T00:30:23.223Z,25.80
2019-05-09T00:33:03.801Z,25.90
2019-05-09T00:35:44.190Z,26.00
2019-05-09T00:38:25.035Z,26.10
2019-05-09T00:41:03.871Z,26.10
2019-05-09T00:43:43.629Z,26.40
2019-05-09T00:46:27.571Z,26.40
2019-05-09T00:49:19.903Z,26.40
2019-05-09T00:51:58.730Z,26.40
2019-05-09T00:54:36.521Z,26.40
2019-05-09T00:57:15.705Z,26.50
2019-05-09T00:59:54.576Z,26.70
2019-05-09T01:02:34.030Z,26.70
2019-05-09T01:05:13.373Z,26.70
2019-05-09T01:07:53.634Z,26.80
2019-05-09T01:10:34.794Z,27.00
2019-05-09T01:13:14.179Z,27.10
2019-05-09T01:15:53.350Z,27.30
2019-05-09T01:18:33.142Z,27.10
2019-05-09T01:21:14.558Z,26.90
2019-05-09T01:23:53.914Z,27.10
2019-05-09T01:26:33.319Z,27.00
2019-05-09T01:29:13.830Z,27.20
2019-05-09T01:31:51.552Z,27.10
2019-05-09T01:34:33.526Z,27.20
2019-05-09T01:37:14.116Z,27.50
2019-05-09T01:39:53.442Z,27.50
2019-05-09T01:42:33.647Z,27.60
2019-05-09T01:45:11.383Z,27.60
2019-05-09T01:47:49.564Z,27.60
2019-05-09T01:50:27.991Z,27.60
2019-05-09T01:53:07.224Z,27.60
2019-05-09T01:56:03.626Z,27.30
2019-05-09T01:58:43.072Z,27.30
2019-05-09T02:01:20.803Z,27.60
2019-05-09T02:04:00.367Z,27.70
2019-05-09T02:06:38.044Z,27.60
2019-05-09T02:09:16.029Z,27.50
2019-05-09T02:11:54.636Z,27.70
2019-05-09T02:14:51.518Z,27.80
2019-05-09T02:17:54.133Z,27.90
2019-05-09T02:20:20.902Z,27.90
2019-05-09T02:23:00.021Z,28.00
2019-05-09T02:25:38.946Z,27.70
2019-05-09T02:28:17.669Z,27.60
2019-05-09T02:30:56.202Z,27.90
2019-05-09T02:33:34.889Z,28.10
2019-05-09T02:36:14.153Z,28.00
2019-05-09T02:38:52.693Z,28.10
2019-05-09T02:41:31.516Z,28.20
2019-05-09T02:44:11.824Z,28.30
2019-05-09T02:47:00.228Z,28.30
2019-05-09T02:49:39.190Z,28.30
2019-05-09T02:52:19.826Z,28.40
2019-05-09T02:55:00.833Z,28.20
2019-05-09T02:57:39.516Z,28.10
2019-05-09T03:00:39.626Z,28.00
2019-05-09T03:03:29.086Z,28.10
2019-05-09T03:06:09.117Z,28.20
2019-05-09T03:08:49.147Z,28.40
2019-05-09T03:11:28.923Z,28.40
2019-05-09T03:14:09.141Z,28.40
2019-05-09T03:16:49.176Z,28.50
2019-05-09T03:19:29.417Z,28.10
2019-05-09T03:22:14.131Z,28.10
2019-05-09T03:24:58.882Z,28.10
2019-05-09T03:27:39.119Z,28.30
2019-05-09T03:30:21.334Z,28.20
2019-05-09T03:32:59.988Z,28.10
2019-05-09T03:35:39.738Z,28.20
2019-05-09T03:38:18.220Z,28.30
2019-05-09T03:40:58.009Z,28.30
2019-05-09T03:43:37.702Z,28.40
2019-05-09T03:46:23.118Z,28.50
2019-05-09T03:49:02.486Z,28.80
2019-05-09T03:51:42.258Z,28.80
2019-05-09T03:54:20.182Z,29.20
2019-05-09T03:57:03.565Z,29.30
2019-05-09T03:59:42.422Z,29.30
2019-05-09T04:02:21.069Z,29.30
2019-05-09T04:05:00.072Z,29.50
2019-05-09T04:07:40.183Z,29.40
2019-05-09T04:10:18.174Z,29.20
2019-05-09T04:12:59.519Z,29.60
2019-05-09T04:15:37.960Z,30.00
2019-05-09T04:18:17.682Z,30.40
2019-05-09T04:20:57.379Z,30.60
2019-05-09T04:23:37.884Z,30.90
2019-05-09T04:26:22.387Z,30.70
2019-05-09T04:29:01.919Z,30.20
2019-05-09T04:31:41.096Z,30.60
2019-05-09T04:34:19.524Z,30.50
2019-05-09T04:36:59.099Z,31.40
2019-05-09T04:39:38.681Z,31.50
2019-05-09T04:42:18.499Z,31.60
2019-05-09T04:45:05.787Z,31.00
2019-05-09T04:47:47.073Z,31.10
2019-05-09T04:50:25.057Z,30.50
2019-05-09T04:53:02.591Z,30.80
2019-05-09T04:55:41.695Z,30.90
2019-05-09T04:58:20.683Z,30.60
2019-05-09T05:01:19.565Z,30.40
2019-05-09T05:03:58.094Z,30.30
2019-05-09T05:06:40.302Z,30.60
2019-05-09T05:09:20.576Z,30.70
2019-05-09T05:11:58.038Z,30.80
2019-05-09T05:14:38.255Z,30.80
2019-05-09T05:17:17.768Z,31.10
2019-05-09T05:19:57.878Z,30.90
2019-05-09T05:22:47.670Z,31.10
2019-05-09T05:25:27.442Z,31.00
2019-05-09T05:28:05.225Z,31.30
2019-05-09T05:30:43.838Z,31.70
2019-05-09T05:33:53.064Z,31.50
2019-05-09T05:36:28.488Z,31.30
2019-05-09T05:39:07.506Z,31.10
2019-05-09T05:41:48.454Z,31.40
2019-05-09T05:44:28.284Z,31.40
2019-05-09T05:47:39.679Z,31.20
2019-05-09T05:50:17.821Z,31.30
2019-05-09T05:52:57.809Z,31.30
2019-05-09T05:55:37.813Z,31.10
2019-05-09T05:58:17.876Z,31.10
2019-05-09T06:00:55.461Z,31.30
2019-05-09T06:03:37.494Z,31.50
2019-05-09T06:06:17.454Z,31.40
2019-05-09T06:08:57.749Z,31.80
2019-05-09T06:11:34.967Z,31.60
2019-05-09T06:14:13.256Z,31.70
2019-05-09T06:16:52.359Z,31.70
2019-05-09T06:19:30.819Z,31.90
2019-05-09T06:22:09.837Z,31.90
2019-05-09T06:24:47.837Z,31.40
2019-05-09T06:27:27.591Z,31.50
2019-05-09T06:30:04.669Z,31.30
2019-05-09T06:32:42.806Z,31.70
2019-05-09T06:35:28.212Z,31.70
2019-05-09T06:38:07.940Z,31.90
2019-05-09T06:40:47.569Z,31.80
2019-05-09T06:43:30.498Z,32.10
2019-05-09T06:46:14.946Z,32.10
2019-05-09T06:48:53.957Z,31.90
2019-05-09T06:51:32.705Z,31.90
2019-05-09T06:54:10.900Z,32.10
2019-05-09T06:56:50.188Z,32.30
2019-05-09T06:59:28.897Z,32.50
2019-05-09T07:02:17.671Z,32.50
2019-05-09T07:05:02.288Z,31.90
2019-05-09T07:07:58.495Z,32.00
2019-05-09T07:10:37.696Z,31.80
2019-05-09T07:13:17.722Z,32.00
2019-05-09T07:15:58.368Z,31.80
2019-05-09T07:18:38.139Z,31.60
2019-05-09T07:21:15.456Z,31.50
2019-05-09T07:23:54.710Z,31.20
2019-05-09T07:26:37.220Z,32.00
2019-05-09T07:29:17.636Z,32.50
2019-05-09T07:32:03.700Z,33.00
2019-05-09T07:34:47.470Z,33.20
2019-05-09T07:37:27.512Z,32.60
2019-05-09T07:40:04.423Z,32.70
2019-05-09T07:42:42.885Z,32.50
2019-05-09T07:45:21.556Z,32.10
2019-05-09T07:47:59.780Z,31.60
2019-05-09T07:50:39.048Z,31.90
2019-05-09T07:53:17.797Z,31.60
2019-05-09T07:55:58.174Z,31.50
2019-05-09T07:58:37.763Z,31.50
2019-05-09T08:01:19.014Z,31.90
2019-05-09T08:03:58.416Z,32.10
2019-05-09T08:06:37.975Z,32.20
2019-05-09T08:09:18.560Z,32.60
2019-05-09T08:11:58.523Z,33.10
2019-05-09T08:14:37.750Z,33.30
2019-05-09T08:17:18.087Z,32.80
2019-05-09T08:19:58.338Z,32.60
2019-05-09T08:22:40.848Z,32.50
2019-05-09T08:25:18.185Z,32.50
2019-05-09T08:27:58.542Z,32.50
2019-05-09T08:30:40.089Z,32.40
2019-05-09T08:33:14.716Z,32.10
2019-05-09T08:35:53.340Z,32.00
2019-05-09T08:38:31.394Z,32.30
2019-05-09T08:41:18.691Z,32.40
2019-05-09T08:43:58.699Z,31.90
2019-05-09T08:46:38.388Z,31.80
2019-05-09T08:49:18.252Z,31.80
2019-05-09T08:52:13.073Z,31.70
2019-05-09T08:54:48.980Z,31.70
2019-05-09T08:57:28.948Z,31.60
2019-05-09T09:00:08.118Z,31.50
2019-05-09T09:02:48.205Z,31.40
2019-05-09T09:05:28.697Z,31.50
2019-05-09T09:08:08.355Z,31.50
2019-05-09T09:10:48.814Z,31.50
2019-05-09T09:13:28.355Z,31.50
2019-05-09T09:16:15.779Z,31.50
2019-05-09T09:18:47.850Z,31.20
2019-05-09T09:21:24.951Z,30.50
2019-05-09T09:24:04.217Z,30.20
2019-05-09T09:26:43.179Z,29.70
2019-05-09T09:29:21.883Z,29.20
2019-05-09T09:32:00.487Z,28.30
2019-05-09T09:34:39.007Z,28.10
2019-05-09T09:37:18.501Z,27.90
2019-05-09T09:39:58.225Z,27.20
2019-05-09T09:42:39.407Z,27.10
2019-05-09T09:45:18.519Z,27.10
2019-05-09T09:47:59.086Z,26.90
2019-05-09T09:50:38.307Z,26.70
2019-05-09T09:53:18.463Z,26.40
2019-05-09T09:55:57.909Z,26.40
2019-05-09T09:58:37.925Z,26.50
2019-05-09T10:01:32.426Z,26.00
2019-05-09T10:04:20.670Z,25.60
2019-05-09T10:06:55.244Z,25.50
2019-05-09T10:09:34.173Z,25.60
2019-05-09T10:12:13.204Z,25.60
2019-05-09T10:14:59.280Z,25.60
2019-05-09T10:17:58.113Z,24.80
2019-05-09T10:21:03.409Z,24.50
2019-05-09T10:23:41.697Z,24.70
2019-05-09T10:26:20.928Z,25.00
2019-05-09T10:29:00.045Z,24.70
2019-05-09T10:31:39.223Z,24.80
2019-05-09T10:34:17.714Z,24.30
2019-05-09T10:36:58.139Z,24.30
2019-05-09T10:39:38.023Z,24.20
2019-05-09T10:42:28.695Z,24.50
2019-05-09T10:45:23.787Z,24.50
2019-05-09T10:48:02.814Z,24.40
2019-05-09T10:50:44.954Z,24.30
2019-05-09T10:53:21.031Z,24.20
2019-05-09T10:55:59.722Z,24.20
2019-05-09T10:58:37.602Z,24.60
2019-05-09T11:01:18.225Z,24.90
2019-05-09T11:03:58.923Z,24.80
2019-05-09T11:06:38.195Z,24.80
2019-05-09T11:09:18.282Z,25.30
2019-05-09T11:12:00.394Z,25.30
2019-05-09T11:14:37.757Z,25.30
2019-05-09T11:17:19.295Z,25.20
2019-05-09T11:19:58.760Z,25.30
2019-05-09T11:22:38.432Z,25.00
2019-05-09T11:25:15.605Z,24.70
2019-05-09T11:28:06.962Z,24.50
2019-05-09T11:30:34.050Z,24.90
2019-05-09T11:33:11.941Z,24.90
2019-05-09T11:35:50.526Z,24.70
2019-05-09T11:38:34.285Z,24.80
2019-05-09T11:41:08.309Z,25.10
2019-05-09T11:43:48.523Z,25.30
2019-05-09T11:46:28.156Z,25.10
2019-05-09T11:49:07.986Z,25.10
2019-05-09T11:51:48.065Z,24.60
2019-05-09T11:54:27.750Z,24.50
2019-05-09T11:57:07.510Z,24.60
2019-05-09T11:59:47.902Z,24.80
2019-05-09T12:02:24.762Z,25.10
2019-05-09T12:05:03.796Z,25.20
2019-05-09T12:07:42.899Z,25.30
2019-05-09T12:10:21.688Z,25.30
2019-05-09T12:13:00.608Z,25.30
2019-05-09T12:15:40.019Z,25.40
2019-05-09T12:18:18.044Z,25.50
2019-05-09T12:20:57.650Z,25.50
2019-05-09T12:23:37.798Z,25.40
2019-05-09T12:26:17.761Z,25.50
2019-05-09T12:28:57.404Z,25.50
2019-05-09T12:31:35.421Z,25.40
2019-05-09T12:34:14.019Z,25.40
2019-05-09T12:36:52.871Z,25.30
2019-05-09T12:39:31.480Z,25.30
2019-05-09T12:42:08.835Z,25.40
2019-05-09T12:44:49.503Z,25.40
2019-05-09T12:47:29.143Z,25.30
2019-05-09T12:50:08.432Z,25.40
2019-05-09T12:52:48.610Z,25.30
2019-05-09T12:55:27.600Z,25.40
2019-05-09T12:58:09.738Z,25.30
2019-05-09T13:00:50.181Z,25.40
2019-05-09T13:03:27.629Z,25.40
2019-05-09T13:06:07.974Z,25.40
2019-05-09T13:08:48.002Z,25.40
2019-05-09T13:11:27.945Z,25.30
2019-05-09T13:14:09.910Z,25.30
2019-05-09T13:17:05.264Z,25.30
2019-05-09T13:19:47.980Z,25.20
2019-05-09T13:22:28.145Z,25.20
2019-05-09T13:25:04.913Z,25.20
2019-05-09T13:27:43.524Z,25.20
2019-05-09T13:30:22.072Z,25.20
2019-05-09T13:33:00.984Z,25.20
2019-05-09T13:35:40.786Z,25.20
2019-05-09T13:38:19.192Z,25.30
2019-05-09T13:40:58.416Z,25.30
2019-05-09T13:43:45.948Z,25.40
2019-05-09T13:46:17.880Z,25.40
2019-05-09T13:49:10.797Z,25.30
2019-05-09T13:51:34.395Z,25.30
2019-05-09T13:54:13.067Z,25.10
2019-05-09T13:56:57.567Z,25.10
2019-05-09T13:59:31.757Z,25.30
2019-05-09T14:02:11.075Z,25.10
2019-05-09T14:04:50.203Z,25.10
2019-05-09T14:07:28.505Z,25.10
2019-05-09T14:10:09.057Z,25.10
2019-05-09T14:13:02.027Z,25.20
2019-05-09T14:15:27.504Z,25.20
2019-05-09T14:18:08.145Z,25.30
2019-05-09T14:20:46.712Z,25.10
2019-05-09T14:23:24.708Z,25.00
2019-05-09T14:26:03.867Z,24.90
2019-05-09T14:28:42.476Z,24.80
2019-05-09T14:31:20.824Z,24.80
2019-05-09T14:33:59.993Z,24.80
2019-05-09T14:36:44.466Z,24.90
2019-05-09T14:39:19.074Z,25.00
2019-05-09T14:41:57.957Z,24.90
2019-05-09T14:44:37.708Z,25.00
2019-05-09T14:47:17.632Z,25.00
2019-05-09T14:49:59.252Z,25.10
2019-05-09T14:52:38.411Z,25.20
2019-05-09T14:55:17.936Z,25.20
2019-05-09T14:57:58.153Z,25.10
2019-05-09T15:00:38.503Z,25.10
2019-05-09T15:03:18.800Z,25.10
2019-05-09T15:05:57.424Z,25.10
2019-05-09T15:08:38.022Z,24.90
2019-05-09T15:11:18.200Z,24.90
2019-05-09T15:13:58.243Z,24.90
2019-05-09T15:16:35.999Z,24.90
2019-05-09T15:19:14.028Z,25.10
2019-05-09T15:21:51.417Z,25.20
2019-05-09T15:24:30.066Z,25.20
2019-05-09T15:27:08.528Z,25.00
2019-05-09T15:29:48.642Z,25.00
2019-05-09T15:32:27.735Z,24.90
2019-05-09T15:35:08.688Z,24.90
2019-05-09T15:37:47.855Z,25.00
2019-05-09T15:40:28.065Z,25.00
2019-05-09T15:43:08.132Z,25.10
2019-05-09T15:45:51.410Z,25.00
2019-05-09T15:48:30.722Z,25.00
2019-05-09T15:51:09.351Z,25.00
2019-05-09T15:53:48.665Z,25.00
2019-05-09T15:56:28.845Z,25.00
2019-05-09T15:59:06.713Z,25.00
2019-05-09T16:01:45.558Z,25.10
2019-05-09T16:04:23.371Z,25.00
2019-05-09T16:07:02.296Z,25.00
2019-05-09T16:09:41.243Z,25.00
2019-05-09T16:12:20.234Z,25.00
2019-05-09T16:14:58.273Z,24.90
2019-05-09T16:17:39.342Z,24.70
2019-05-09T16:20:22.974Z,24.70
2019-05-09T16:22:57.216Z,24.90
2019-05-09T16:25:35.520Z,24.90
2019-05-09T16:28:13.541Z,24.90
2019-05-09T16:30:51.789Z,24.90
2019-05-09T16:33:30.810Z,24.90
2019-05-09T16:36:09.449Z,24.90
2019-05-09T16:38:49.106Z,25.00
2019-05-09T16:41:28.008Z,25.00
2019-05-09T16:44:07.885Z,25.10
2019-05-09T16:46:48.169Z,25.10
2019-05-09T16:49:29.308Z,25.10
2019-05-09T16:52:07.353Z,25.10
2019-05-09T16:54:49.867Z,25.10
2019-05-09T16:57:27.568Z,25.10
2019-05-09T17:00:07.857Z,25.10
2019-05-09T17:02:48.121Z,25.10
2019-05-09T17:05:27.913Z,25.10
2019-05-09T17:08:08.146Z,24.90
2019-05-09T17:10:48.403Z,24.90
2019-05-09T17:13:28.932Z,25.00
2019-05-09T17:16:07.563Z,25.10
2019-05-09T17:18:48.498Z,24.80
2019-05-09T17:21:37.750Z,24.80
2019-05-09T17:24:18.878Z,24.80
2019-05-09T17:26:58.017Z,24.60
2019-05-09T17:29:38.120Z,24.80
2019-05-09T17:32:18.126Z,24.90
2019-05-09T17:34:58.150Z,24.90
2019-05-09T17:37:38.041Z,25.00
2019-05-09T17:40:19.115Z,25.10
2019-05-09T17:42:58.979Z,25.20
2019-05-09T17:45:39.548Z,25.20
2019-05-09T17:48:18.267Z,25.00
2019-05-09T17:50:57.860Z,24.90
2019-05-09T17:53:37.285Z,24.90
2019-05-09T17:56:16.590Z,24.80
2019-05-09T17:58:57.700Z,24.70
2019-05-09T18:01:35.841Z,24.80
2019-05-09T18:04:15.102Z,24.90
2019-05-09T18:06:53.070Z,24.80
2019-05-09T18:09:31.875Z,24.80
2019-05-09T18:12:10.454Z,24.80
2019-05-09T18:14:49.052Z,24.90
2019-05-09T18:17:27.978Z,25.00
2019-05-09T18:20:08.078Z,24.90
2019-05-09T18:22:47.940Z,25.00
2019-05-09T18:25:26.837Z,25.00
2019-05-09T18:28:05.496Z,25.10
2019-05-09T18:30:44.322Z,25.10
2019-05-09T18:33:47.606Z,24.90
2019-05-09T18:36:28.076Z,24.90
2019-05-09T18:39:05.044Z,24.90
2019-05-09T18:41:45.551Z,24.80
2019-05-09T18:44:24.181Z,24.90
2019-05-09T18:47:07.633Z,25.10
2019-05-09T18:49:45.068Z,25.00
2019-05-09T18:52:23.257Z,24.90
2019-05-09T18:55:00.552Z,24.80
2019-05-09T18:57:39.368Z,24.90
2019-05-09T19:00:19.266Z,24.80
2019-05-09T19:02:58.373Z,24.70
2019-05-09T19:05:36.923Z,24.70
2019-05-09T19:08:15.118Z,24.70
2019-05-09T19:10:53.788Z,24.80
2019-05-09T19:13:32.810Z,24.90
2019-05-09T19:16:21.110Z,25.00
2019-05-09T19:19:10.748Z,25.00
2019-05-09T19:21:56.974Z,25.00
2019-05-09T19:24:36.443Z,24.90
2019-05-09T19:27:15.559Z,24.70
2019-05-09T19:29:54.502Z,24.70
2019-05-09T19:32:32.439Z,24.80
2019-05-09T19:35:10.340Z,24.80
2019-05-09T19:37:48.590Z,24.80
2019-05-09T19:40:27.692Z,24.70
2019-05-09T19:43:06.155Z,24.60
2019-05-09T19:45:44.792Z,24.60
2019-05-09T19:48:22.840Z,24.60
2019-05-09T19:51:00.792Z,24.70
2019-05-09T19:53:38.678Z,24.80
2019-05-09T19:56:17.953Z,24.80
2019-05-09T19:58:56.432Z,24.60
2019-05-09T20:01:34.727Z,24.60
2019-05-09T20:04:13.564Z,24.70
2019-05-09T20:06:51.356Z,24.70
2019-05-09T20:09:35.506Z,24.80
2019-05-09T20:12:31.233Z,24.80
2019-05-09T20:15:11.355Z,24.90
2019-05-09T20:17:49.310Z,25.00
2019-05-09T20:20:27.655Z,24.90
2019-05-09T20:23:06.513Z,24.90
2019-05-09T20:25:45.730Z,24.80
2019-05-09T20:28:24.305Z,24.80
2019-05-09T20:31:03.211Z,24.80
2019-05-09T20:33:40.947Z,24.70
2019-05-09T20:36:19.425Z,24.80
2019-05-09T20:38:58.123Z,24.90
2019-05-09T20:41:37.472Z,24.90
2019-05-09T20:44:16.657Z,24.90
2019-05-09T20:46:55.033Z,24.80
2019-05-09T20:49:33.528Z,24.80
2019-05-09T20:52:12.600Z,24.80
2019-05-09T20:54:51.064Z,24.70
2019-05-09T20:57:29.246Z,24.80
2019-05-09T21:00:08.107Z,24.90
2019-05-09T21:02:46.691Z,25.10
2019-05-09T21:05:25.932Z,25.10
2019-05-09T21:08:04.939Z,25.20
2019-05-09T21:10:44.266Z,25.20
2019-05-09T21:13:22.885Z,25.10
2019-05-09T21:16:03.202Z,25.10
2019-05-09T21:18:42.538Z,25.00
2019-05-09T21:21:22.595Z,25.10
2019-05-09T21:24:01.958Z,24.90
2019-05-09T21:26:40.104Z,25.00
2019-05-09T21:29:19.271Z,25.00
2019-05-09T21:31:57.912Z,25.00
2019-05-09T21:34:37.046Z,24.90
2019-05-09T21:37:16.253Z,24.90
2019-05-09T21:39:53.589Z,24.90
2019-05-09T21:42:32.344Z,24.90
2019-05-09T21:45:11.246Z,24.90
2019-05-09T21:47:50.174Z,24.90
2019-05-09T21:50:28.964Z,24.90
2019-05-09T21:53:07.966Z,24.80
2019-05-09T21:55:45.438Z,24.80
2019-05-09T21:58:23.100Z,24.90
2019-05-09T22:01:03.670Z,24.90
2019-05-09T22:03:42.682Z,24.90
2019-05-09T22:06:21.930Z,25.10
2019-05-09T22:09:01.064Z,25.00
2019-05-09T22:11:47.406Z,24.90
2019-05-09T22:14:25.826Z,24.80
2019-05-09T22:17:08.233Z,24.90
2019-05-09T22:19:46.328Z,24.90
2019-05-09T22:22:24.991Z,24.90
2019-05-09T22:25:04.163Z,24.90
2019-05-09T22:27:43.473Z,24.90
2019-05-09T22:30:21.819Z,24.90
2019-05-09T22:32:59.834Z,24.90
2019-05-09T22:35:38.614Z,24.90
2019-05-09T22:38:16.471Z,25.00
2019-05-09T22:40:54.806Z,25.10
2019-05-09T22:43:32.780Z,25.00
2019-05-09T22:46:11.830Z,25.00
2019-05-09T22:48:52.107Z,25.10
2019-05-09T22:51:30.402Z,25.10
2019-05-09T22:54:12.759Z,25.00
2019-05-09T22:56:48.354Z,25.10
2019-05-09T22:59:27.158Z,25.00
2019-05-09T23:02:07.063Z,24.90
2019-05-09T23:04:45.666Z,24.90
2019-05-09T23:07:24.695Z,24.90
2019-05-09T23:10:03.743Z,24.90
2019-05-09T23:12:43.091Z,24.90
2019-05-09T23:15:22.312Z,25.00
2019-05-09T23:18:01.270Z,24.90
2019-05-09T23:20:59.027Z,25.00
2019-05-09T23:23:53.737Z,24.90
2019-05-09T23:26:33.342Z,25.10
2019-05-09T23:29:12.851Z,25.10
2019-05-09T23:31:59.769Z,25.10
2019-05-09T23:34:38.581Z,25.10
2019-05-09T23:37:17.239Z,25.20
2019-05-09T23:39:55.861Z,25.30
2019-05-09T23:42:34.678Z,25.20
2019-05-09T23:45:12.853Z,25.20
2019-05-09T23:47:51.452Z,25.30
2019-05-09T23:50:34.435Z,25.30
2019-05-09T23:53:14.359Z,25.30
2019-05-09T23:56:10.733Z,25.20
2019-05-09T23:59:05.040Z,25.20
